sensor_id;sensor_type;location;lat;lon;timestamp;pressure;altitude;pressure_sealevel;temperature
79488;BMP180;68949;53.176;18.088;2023-03-30T18:30:50;99442.40;;;
79488;BMP180;68949;53.176;18.088;2023-03-30T18:33:18;99440.80;;;
79488;BMP180;68949;53.176;18.088;2023-03-30T18:35:47;99434.80;;;
79488;BMP180;68949;53.176;18.088;2023-03-30T18:38:20;99434.20;;;
79488;BMP180;68949;53.176;18.088;2023-03-30T18:40:50;99437.40;;;
79488;BMP180;68949;53.176;18.088;2023-03-30T18:43:23;99442.40;;;
79488;BMP180;68949;53.176;18.088;2023-03-30T18:45:52;99434.00;;;
79488;BMP180;68949;53.176;18.088;2023-03-30T18:48:20;99433.60;;;
79488;BMP180;68949;53.176;18.088;2023-03-30T18:50:53;99429.20;;;
79488;BMP180;68949;53.176;18.088;2023-03-30T18:53:23;99433.80;;;
79488;BMP180;68949;53.176;18.088;2023-03-30T18:55:53;99429.80;;;
79488;BMP180;68949;53.176;18.088;2023-03-30T18:58:31;99443.40;;;
79488;BMP180;68949;53.176;18.088;2023-03-30T19:00:59;99439.00;;;
79488;BMP180;68949;53.176;18.088;2023-03-30T19:03:26;99435.20;;;
79488;BMP180;68949;53.176;18.088;2023-03-30T19:05:53;99439.00;;;
79488;BMP180;68949;53.176;18.088;2023-03-30T19:08:23;99447.20;;;
79488;BMP180;68949;53.176;18.088;2023-03-30T19:10:54;99468.60;;;
79488;BMP180;68949;53.176;18.088;2023-03-30T19:13:23;99472.80;;;
79488;BMP180;68949;53.176;18.088;2023-03-30T19:15:51;99484.00;;;
79488;BMP180;68949;53.176;18.088;2023-03-30T19:18:19;99475.40;;;
79488;BMP180;68949;53.176;18.088;2023-03-30T19:20:46;99468.80;;;
79488;BMP180;68949;53.176;18.088;2023-03-30T19:23:16;99455.20;;;
79488;BMP180;68949;53.176;18.088;2023-03-30T19:25:44;99453.80;;;
79488;BMP180;68949;53.176;18.088;2023-03-30T19:28:12;99453.40;;;
79488;BMP180;68949;53.176;18.088;2023-03-30T19:30:40;99445.20;;;
79488;BMP180;68949;53.176;18.088;2023-03-30T19:33:11;99451.40;;;
79488;BMP180;68949;53.176;18.088;2023-03-30T19:35:42;99445.40;;;
79488;BMP180;68949;53.176;18.088;2023-03-30T19:38:10;99433.80;;;
79488;BMP180;68949;53.176;18.088;2023-03-30T19:40:38;99430.80;;;
79488;BMP180;68949;53.176;18.088;2023-03-30T19:43:05;99426.20;;;
79488;BMP180;68949;53.176;18.088;2023-03-30T19:45:33;99427.60;;;
79488;BMP180;68949;53.176;18.088;2023-03-30T19:48:00;99436.00;;;
79488;BMP180;68949;53.176;18.088;2023-03-30T19:50:26;99448.20;;;
79488;BMP180;68949;53.176;18.088;2023-03-30T19:52:53;99454.00;;;
79488;BMP180;68949;53.176;18.088;2023-03-30T19:55:21;99460.00;;;
79488;BMP180;68949;53.176;18.088;2023-03-30T19:57:47;99472.80;;;
79488;BMP180;68949;53.176;18.088;2023-03-30T20:00:16;99484.40;;;
79488;BMP180;68949;53.176;18.088;2023-03-30T20:02:50;99494.20;;;
79488;BMP180;68949;53.176;18.088;2023-03-30T20:05:20;99494.80;;;
79488;BMP180;68949;53.176;18.088;2023-03-30T20:07:48;99500.40;;;
79488;BMP180;68949;53.176;18.088;2023-03-30T20:10:24;99497.00;;;
79488;BMP180;68949;53.176;18.088;2023-03-30T20:12:52;99502.80;;;
79488;BMP180;68949;53.176;18.088;2023-03-30T20:15:22;99512.40;;;
79488;BMP180;68949;53.176;18.088;2023-03-30T20:17:49;99506.20;;;
79488;BMP180;68949;53.176;18.088;2023-03-30T20:20:24;99506.20;;;
79488;BMP180;68949;53.176;18.088;2023-03-30T20:22:52;99509.40;;;
79488;BMP180;68949;53.176;18.088;2023-03-30T20:25:22;99510.80;;;
79488;BMP180;68949;53.176;18.088;2023-03-30T20:27:48;99507.40;;;
79488;BMP180;68949;53.176;18.088;2023-03-30T20:30:16;99502.20;;;
79488;BMP180;68949;53.176;18.088;2023-03-30T20:32:44;99499.40;;;
79488;BMP180;68949;53.176;18.088;2023-03-30T20:35:12;99504.20;;;
79488;BMP180;68949;53.176;18.088;2023-03-30T20:37:38;99500.20;;;
79488;BMP180;68949;53.176;18.088;2023-03-30T20:40:06;99500.80;;;
79488;BMP180;68949;53.176;18.088;2023-03-30T20:42:36;99509.80;;;
79488;BMP180;68949;53.176;18.088;2023-03-30T20:45:06;99508.40;;;
79488;BMP180;68949;53.176;18.088;2023-03-30T20:47:33;99506.80;;;
79488;BMP180;68949;53.176;18.088;2023-03-30T20:50:00;99507.40;;;
79488;BMP180;68949;53.176;18.088;2023-03-30T20:52:28;99502.40;;;
79488;BMP180;68949;53.176;18.088;2023-03-30T20:54:55;99509.60;;;
79488;BMP180;68949;53.176;18.088;2023-03-30T20:57:23;99504.40;;;
79488;BMP180;68949;53.176;18.088;2023-03-30T20:59:50;99498.20;;;
79488;BMP180;68949;53.176;18.088;2023-03-30T21:02:19;99491.80;;;
79488;BMP180;68949;53.176;18.088;2023-03-30T21:04:45;99493.80;;;
79488;BMP180;68949;53.176;18.088;2023-03-30T21:07:12;99492.60;;;
79488;BMP180;68949;53.176;18.088;2023-03-30T21:09:42;99494.60;;;
79488;BMP180;68949;53.176;18.088;2023-03-30T21:12:09;99493.40;;;
79488;BMP180;68949;53.176;18.088;2023-03-30T21:14:35;99490.80;;;
79488;BMP180;68949;53.176;18.088;2023-03-30T21:17:02;99500.20;;;
79488;BMP180;68949;53.176;18.088;2023-03-30T21:19:29;99504.60;;;
79488;BMP180;68949;53.176;18.088;2023-03-30T21:21:56;99512.40;;;
79488;BMP180;68949;53.176;18.088;2023-03-30T21:24:23;99511.80;;;
79488;BMP180;68949;53.176;18.088;2023-03-30T21:26:49;99512.00;;;
79488;BMP180;68949;53.176;18.088;2023-03-30T21:29:17;99513.60;;;
79488;BMP180;68949;53.176;18.088;2023-03-30T21:31:43;99516.80;;;
79488;BMP180;68949;53.176;18.088;2023-03-30T21:34:10;99523.00;;;
79488;BMP180;68949;53.176;18.088;2023-03-30T21:36:38;99524.80;;;
79488;BMP180;68949;53.176;18.088;2023-03-30T21:39:04;99538.60;;;
79488;BMP180;68949;53.176;18.088;2023-03-30T21:41:31;99531.60;;;
79488;BMP180;68949;53.176;18.088;2023-03-30T21:43:58;99533.80;;;
79488;BMP180;68949;53.176;18.088;2023-03-30T21:46:25;99525.40;;;
79488;BMP180;68949;53.176;18.088;2023-03-30T21:48:52;99528.00;;;
79488;BMP180;68949;53.176;18.088;2023-03-30T21:51:22;99533.00;;;
79488;BMP180;68949;53.176;18.088;2023-03-30T21:53:52;99536.60;;;
79488;BMP180;68949;53.176;18.088;2023-03-30T21:56:22;99532.00;;;
79488;BMP180;68949;53.176;18.088;2023-03-30T21:58:50;99532.20;;;
79488;BMP180;68949;53.176;18.088;2023-03-30T22:01:19;99529.40;;;
79488;BMP180;68949;53.176;18.088;2023-03-30T22:03:45;99524.60;;;
79488;BMP180;68949;53.176;18.088;2023-03-30T22:06:14;99523.00;;;
79488;BMP180;68949;53.176;18.088;2023-03-30T22:08:42;99526.80;;;
79488;BMP180;68949;53.176;18.088;2023-03-30T22:11:15;99531.20;;;
79488;BMP180;68949;53.176;18.088;2023-03-30T22:13:43;99527.80;;;
79488;BMP180;68949;53.176;18.088;2023-03-30T22:16:22;99522.20;;;
79488;BMP180;68949;53.176;18.088;2023-03-30T22:18:50;99511.40;;;
79488;BMP180;68949;53.176;18.088;2023-03-30T22:21:23;99512.60;;;
79488;BMP180;68949;53.176;18.088;2023-03-30T22:23:54;99509.60;;;
79488;BMP180;68949;53.176;18.088;2023-03-30T22:26:21;99515.80;;;
79488;BMP180;68949;53.176;18.088;2023-03-30T22:28:48;99522.80;;;
79488;BMP180;68949;53.176;18.088;2023-03-30T22:31:15;99530.20;;;
79488;BMP180;68949;53.176;18.088;2023-03-30T22:33:43;99528.60;;;
79488;BMP180;68949;53.176;18.088;2023-03-30T22:36:16;99522.60;;;
79488;BMP180;68949;53.176;18.088;2023-03-30T22:38:46;99519.80;;;
79488;BMP180;68949;53.176;18.088;2023-03-30T22:41:14;99528.00;;;
79488;BMP180;68949;53.176;18.088;2023-03-30T22:43:41;99525.20;;;
79488;BMP180;68949;53.176;18.088;2023-03-30T22:46:08;99523.00;;;
79488;BMP180;68949;53.176;18.088;2023-03-30T22:48:35;99524.20;;;
79488;BMP180;68949;53.176;18.088;2023-03-30T22:51:03;99529.00;;;
79488;BMP180;68949;53.176;18.088;2023-03-30T22:53:31;99526.80;;;
79488;BMP180;68949;53.176;18.088;2023-03-30T22:55:58;99528.20;;;
79488;BMP180;68949;53.176;18.088;2023-03-30T22:58:25;99533.80;;;
79488;BMP180;68949;53.176;18.088;2023-03-30T23:00:59;99535.40;;;
79488;BMP180;68949;53.176;18.088;2023-03-30T23:03:26;99535.80;;;
79488;BMP180;68949;53.176;18.088;2023-03-30T23:05:53;99536.60;;;
79488;BMP180;68949;53.176;18.088;2023-03-30T23:08:21;99538.60;;;
79488;BMP180;68949;53.176;18.088;2023-03-30T23:10:50;99547.00;;;
79488;BMP180;68949;53.176;18.088;2023-03-30T23:13:19;99547.40;;;
79488;BMP180;68949;53.176;18.088;2023-03-30T23:15:45;99548.20;;;
79488;BMP180;68949;53.176;18.088;2023-03-30T23:18:15;99551.40;;;
79488;BMP180;68949;53.176;18.088;2023-03-30T23:20:42;99552.00;;;
79488;BMP180;68949;53.176;18.088;2023-03-30T23:23:13;99552.80;;;
79488;BMP180;68949;53.176;18.088;2023-03-30T23:25:49;99555.40;;;
79488;BMP180;68949;53.176;18.088;2023-03-30T23:28:17;99554.00;;;
79488;BMP180;68949;53.176;18.088;2023-03-30T23:30:44;99554.20;;;
79488;BMP180;68949;53.176;18.088;2023-03-30T23:33:12;99558.60;;;
79488;BMP180;68949;53.176;18.088;2023-03-30T23:35:46;99568.40;;;
79488;BMP180;68949;53.176;18.088;2023-03-30T23:38:14;99569.20;;;
79488;BMP180;68949;53.176;18.088;2023-03-30T23:40:40;99571.40;;;
79488;BMP180;68949;53.176;18.088;2023-03-30T23:43:07;99580.00;;;
79488;BMP180;68949;53.176;18.088;2023-03-30T23:45:34;99578.80;;;
79488;BMP180;68949;53.176;18.088;2023-03-30T23:48:00;99574.80;;;
79488;BMP180;68949;53.176;18.088;2023-03-30T23:50:27;99569.80;;;
79488;BMP180;68949;53.176;18.088;2023-03-30T23:52:54;99568.20;;;
79488;BMP180;68949;53.176;18.088;2023-03-30T23:55:21;99578.80;;;
79488;BMP180;68949;53.176;18.088;2023-03-30T23:57:49;99574.20;;;
